Moko, Arkansas
Current Conditions -  °F | °C
As of 7:53 AM on Saturday 22 Nov 2014 (Local Time) from KUNO Reporting Station
Overcast Overcast  
Wind Chill: 44°   Ceiling: 2900
Heat Index: 48°   Visibility: 9mi
Dew Point: 44°   Wind: 8mph
Humidity: 86%   Direction: 170°S
Pressure: 30.15"   Gusts: NA
Location:  36.47°N, 91.84°W
Report Text: KUNO 221353Z AUTO 17007KT 9SM OVC029 09/07 A3015 RMK AO2 SLP212 T00890067
Loading
Personal Weather Stations






























Interactive Weather Map New forecast layout! Learn more

10-Day Weather Forecast

Advertisements
Track Severe Weather on mobile